Time;durP1;ratioP1;P1;durP2;ratioP2;P2;SDS_P1;SDS_P2;PMS_P1;PMS_P2;Temp;Humidity;BMP_temperature;BMP_pressure;BME280_temperature;BME280_humidity;BME280_pressure;Samples;Min_cycle;Max_cycle;Signal;HPM_P1;HPM_P2
2023/01/22 00:00:54;;;;;;;11.40;3.20;;;;;;;0.86;92.96;101269.54;109579;1254;58554;-67
2023/01/22 00:03:43;;;;;;;10.60;3.50;;;;;;;0.88;92.97;101270.72;109438;1254;61326;-68
2023/01/22 00:06:34;;;;;;;10.30;3.40;;;;;;;0.88;92.89;101273.53;108746;1254;1002464;-65
2023/01/22 00:09:22;;;;;;;8.40;2.90;;;;;;;0.88;92.90;101274.91;109588;1253;66699;-65
2023/01/22 00:12:10;;;;;;;11.50;3.10;;;;;;;0.85;92.80;101276.02;109499;1254;71434;-65
2023/01/22 00:14:57;;;;;;;8.70;3.00;;;;;;;0.86;93.10;101279.50;109554;1254;57526;-68
2023/01/22 00:17:45;;;;;;;7.80;2.60;;;;;;;0.87;93.06;101277.39;109561;1253;59162;-66
2023/01/22 00:20:33;;;;;;;8.70;2.80;;;;;;;0.85;93.16;101270.07;109583;1254;74046;-66
2023/01/22 00:23:23;;;;;;;8.90;2.40;;;;;;;0.90;93.02;101277.68;109635;1254;68093;-66
2023/01/22 00:26:14;;;;;;;8.40;2.50;;;;;;;0.92;92.87;101281.30;109642;1252;71793;-65
2023/01/22 00:29:03;;;;;;;8.00;2.30;;;;;;;0.94;92.87;101277.95;109495;1254;57294;-66
2023/01/22 00:31:51;;;;;;;7.30;2.60;;;;;;;0.94;92.55;101280.21;109621;1252;61370;-65
2023/01/22 00:34:40;;;;;;;8.30;3.00;;;;;;;0.92;92.65;101282.35;109564;1253;73793;-66
2023/01/22 00:37:27;;;;;;;8.70;2.90;;;;;;;0.91;92.63;101284.48;109608;1253;66327;-66
2023/01/22 00:40:16;;;;;;;8.30;3.00;;;;;;;0.90;92.69;101290.27;109554;1254;72400;-65
2023/01/22 00:43:04;;;;;;;8.10;2.70;;;;;;;0.89;92.51;101291.14;109533;1252;57273;-68
2023/01/22 00:45:52;;;;;;;7.80;3.00;;;;;;;0.90;92.95;101294.98;109552;1252;59113;-64
2023/01/22 00:48:41;;;;;;;7.10;2.80;;;;;;;0.92;92.87;101292.66;109634;1253;73875;-66
2023/01/22 00:51:29;;;;;;;7.20;2.50;;;;;;;0.93;93.02;101290.02;109620;1252;66911;-66
2023/01/22 00:54:17;;;;;;;8.50;2.70;;;;;;;0.94;92.78;101294.73;109460;1253;72541;-65
2023/01/22 00:57:05;;;;;;;7.20;2.30;;;;;;;0.94;92.88;101292.64;109627;1254;57330;-67
2023/01/22 00:59:53;;;;;;;7.80;2.70;;;;;;;0.94;92.97;101286.86;109548;1254;61520;-67
2023/01/22 01:06:06;;;;;;;8.30;2.80;;;;;;;0.91;93.11;101284.48;109590;1252;67663;-68
2023/01/22 01:08:54;;;;;;;7.80;2.80;;;;;;;0.89;93.00;101288.19;109563;1252;70810;-65
2023/01/22 01:11:42;;;;;;;8.40;2.80;;;;;;;0.88;93.00;101288.02;109551;1253;58745;-69
2023/01/22 01:14:30;;;;;;;8.30;3.00;;;;;;;0.90;93.22;101292.02;109570;1254;60021;-67
2023/01/22 01:17:18;;;;;;;7.60;2.70;;;;;;;0.91;93.23;101296.52;109630;1252;71642;-66
2023/01/22 01:20:07;;;;;;;8.70;2.40;;;;;;;0.87;93.21;101297.83;109598;1253;69054;-68
2023/01/22 01:22:55;;;;;;;8.20;2.70;;;;;;;0.84;93.09;101298.05;109595;1254;71467;-69
2023/01/22 01:25:43;;;;;;;8.30;2.80;;;;;;;0.83;93.29;101298.06;109564;1253;59545;-68
2023/01/22 01:28:33;;;;;;;9.20;2.90;;;;;;;0.82;93.24;101299.15;109583;1253;59929;-68
2023/01/22 01:31:24;;;;;;;11.50;3.00;;;;;;;0.78;93.44;101303.05;109588;1254;72769;-67
2023/01/22 01:34:16;;;;;;;8.40;2.60;;;;;;;0.78;93.44;101301.83;109612;1254;67719;-68
2023/01/22 01:37:04;;;;;;;8.20;2.50;;;;;;;0.79;93.68;101297.79;109573;1252;73129;-68
2023/01/22 01:39:51;;;;;;;7.50;2.60;;;;;;;0.78;93.62;101297.45;109610;1251;57269;-68
2023/01/22 01:42:41;;;;;;;6.00;2.00;;;;;;;0.79;93.97;101299.73;109594;1252;61087;-65
2023/01/22 01:45:33;;;;;;;8.70;2.80;;;;;;;0.76;94.03;101305.52;109595;1252;71590;-66
2023/01/22 01:48:32;;;;;;;8.00;2.50;;;;;;;0.76;94.20;101303.63;109610;1253;67849;-64
2023/01/22 01:51:32;;;;;;;8.70;3.40;;;;;;;0.74;94.42;101300.84;109426;1254;73425;-67
2023/01/22 01:54:20;;;;;;;8.60;2.90;;;;;;;0.77;94.21;101300.81;109401;1253;59745;-66
2023/01/22 01:57:15;;;;;;;7.60;2.60;;;;;;;0.77;94.02;101307.98;109510;1251;59156;-65
2023/01/22 02:00:09;;;;;;;7.30;2.80;;;;;;;0.76;94.18;101305.18;109536;1253;73060;-65
2023/01/22 02:03:00;;;;;;;7.90;2.60;;;;;;;0.77;94.31;101306.73;109498;1252;66459;-66
2023/01/22 02:05:49;;;;;;;6.80;2.40;;;;;;;0.78;94.21;101306.53;109489;1254;72820;-67
2023/01/22 02:08:40;;;;;;;7.60;2.70;;;;;;;0.80;94.35;101305.64;109606;1252;57365;-66
2023/01/22 02:11:31;;;;;;;8.00;2.80;;;;;;;0.81;94.34;101308.59;109495;1254;60294;-65
2023/01/22 02:14:31;;;;;;;7.30;2.70;;;;;;;0.81;94.04;101311.73;109503;1252;73769;-65
2023/01/22 02:17:21;;;;;;;7.20;2.60;;;;;;;0.81;94.03;101316.29;109468;1252;67936;-65
2023/01/22 02:20:10;;;;;;;9.00;2.60;;;;;;;0.81;94.04;101312.09;109487;1252;72924;-64
2023/01/22 02:23:00;;;;;;;8.70;3.00;;;;;;;0.81;94.15;101311.73;109407;1253;58869;-65
2023/01/22 02:25:48;;;;;;;7.70;3.10;;;;;;;0.83;94.36;101309.61;109615;1253;60123;-65
2023/01/22 02:28:36;;;;;;;8.50;3.20;;;;;;;0.83;94.17;101307.33;109577;1252;72777;-66
2023/01/22 02:31:25;;;;;;;10.00;2.40;;;;;;;0.82;94.19;101311.70;109599;1252;67629;-67
2023/01/22 02:34:13;;;;;;;9.70;3.20;;;;;;;0.80;94.38;101311.77;109525;1253;71721;-65
2023/01/22 02:37:02;;;;;;;9.40;2.80;;;;;;;0.77;94.43;101310.41;109565;1253;58574;-68
2023/01/22 02:39:51;;;;;;;8.00;3.00;;;;;;;0.72;94.52;101312.42;109565;1253;58951;-66
2023/01/22 02:42:38;;;;;;;8.40;2.80;;;;;;;0.70;94.49;101313.32;109606;1252;72021;-65
2023/01/22 02:45:26;;;;;;;8.30;2.80;;;;;;;0.69;94.47;101311.77;109612;1252;66616;-66
2023/01/22 02:48:15;;;;;;;6.90;2.60;;;;;;;0.67;94.61;101309.17;109547;1252;71770;-65
2023/01/22 02:51:04;;;;;;;8.10;2.50;;;;;;;0.64;94.63;101306.60;109556;1252;57288;-66
2023/01/22 02:53:53;;;;;;;8.90;2.50;;;;;;;0.61;94.81;101306.83;109620;1253;60039;-66
2023/01/22 02:56:41;;;;;;;7.70;2.80;;;;;;;0.60;94.88;101305.10;109197;1251;204195;-67
2023/01/22 02:59:30;;;;;;;8.10;2.90;;;;;;;0.60;94.93;101313.48;109566;1252;67927;-66
2023/01/22 03:02:18;;;;;;;7.70;2.90;;;;;;;0.62;95.08;101312.93;109531;1253;72812;-65
2023/01/22 03:05:07;;;;;;;7.60;3.10;;;;;;;0.66;94.99;101313.20;109457;1253;59217;-64
2023/01/22 03:07:56;;;;;;;7.60;2.80;;;;;;;0.69;94.79;101309.67;109596;1253;60612;-64
2023/01/22 03:10:44;;;;;;;8.40;2.80;;;;;;;0.71;94.63;101307.36;109393;1254;72831;-65
2023/01/22 03:22:54;;;;;;;9.90;3.00;;;;;;;0.64;94.49;101308.16;109372;1254;60550;-64
2023/01/22 03:25:41;;;;;;;12.00;3.70;;;;;;;0.68;94.78;101313.19;108622;1254;1002994;-65
2023/01/22 03:28:30;;;;;;;10.20;3.30;;;;;;;0.70;94.71;101319.08;109348;1254;69079;-67
2023/01/22 03:31:19;;;;;;;8.00;2.90;;;;;;;0.72;94.69;101316.79;109362;1254;71268;-66
2023/01/22 03:34:07;;;;;;;8.30;3.00;;;;;;;0.72;94.38;101315.20;109422;1254;57363;-67
2023/01/22 03:36:56;;;;;;;8.70;3.20;;;;;;;0.70;94.64;101316.63;109395;1254;59068;-66
2023/01/22 03:39:44;;;;;;;8.70;2.90;;;;;;;0.68;94.52;101315.78;109329;1254;71893;-66
2023/01/22 03:42:38;;;;;;;8.40;2.80;;;;;;;0.65;94.78;101314.61;109255;1256;68091;-65
2023/01/22 03:45:26;;;;;;;8.40;3.10;;;;;;;0.63;94.76;101310.83;109270;1258;71198;-67
2023/01/22 03:48:14;;;;;;;7.20;2.90;;;;;;;0.64;94.80;101313.23;109232;1256;59778;-64
2023/01/22 03:51:14;;;;;;;9.30;3.00;;;;;;;0.65;94.96;101315.32;109265;1256;60492;-64
2023/01/22 03:54:03;;;;;;;8.30;3.10;;;;;;;0.64;94.80;101314.65;109211;1256;73411;-65
2023/01/22 03:56:51;;;;;;;8.40;3.00;;;;;;;0.60;94.99;101317.16;109077;1256;68223;-65
2023/01/22 03:59:46;;;;;;;7.10;2.70;;;;;;;0.56;94.91;101318.44;109194;1255;72751;-65
2023/01/22 04:02:36;;;;;;;7.90;2.90;;;;;;;0.53;94.95;101320.75;109192;1255;57320;-66
2023/01/22 04:05:27;;;;;;;7.80;2.80;;;;;;;0.52;95.07;101328.46;109180;1256;61067;-66
2023/01/22 04:08:14;;;;;;;9.10;3.80;;;;;;;0.50;95.17;101328.84;109269;1256;72800;-66
2023/01/22 04:11:04;;;;;;;9.90;3.00;;;;;;;0.50;95.31;101335.64;109261;1256;66348;-65
2023/01/22 04:13:54;;;;;;;9.30;3.30;;;;;;;0.45;95.28;101319.13;109309;1253;71502;-65
2023/01/22 04:16:43;;;;;;;9.10;3.00;;;;;;;0.52;95.21;101328.10;109477;1253;57564;-65
2023/01/22 04:19:49;;;;;;;8.20;3.30;;;;;;;0.51;95.13;101330.58;109540;1253;59209;-65
2023/01/22 04:23:15;;;;;;;8.10;3.20;;;;;;;0.53;95.22;101331.94;109379;1252;70928;-64
2023/01/22 04:26:03;;;;;;;7.70;3.10;;;;;;;0.55;95.11;101335.22;109575;1252;66849;-65
2023/01/22 04:28:52;;;;;;;8.50;3.30;;;;;;;0.55;94.95;101337.67;109613;1252;74003;-66
2023/01/22 04:31:41;;;;;;;7.10;2.90;;;;;;;0.53;95.01;101339.10;109578;1252;57395;-66
2023/01/22 04:34:38;;;;;;;9.40;3.50;;;;;;;0.51;95.13;101341.04;109600;1252;58015;-67
2023/01/22 04:37:49;;;;;;;9.90;3.90;;;;;;;0.49;94.83;101339.16;109563;1252;70492;-64
2023/01/22 04:40:37;;;;;;;7.30;3.40;;;;;;;0.47;94.83;101342.51;109603;1252;69070;-66
2023/01/22 04:43:25;;;;;;;8.60;3.10;;;;;;;0.47;95.20;101349.31;109605;1252;71805;-65
2023/01/22 04:46:13;;;;;;;7.40;3.10;;;;;;;0.46;94.96;101344.79;109599;1252;57638;-65
2023/01/22 04:49:01;;;;;;;7.10;2.80;;;;;;;0.45;95.13;101350.75;109606;1252;61521;-64
2023/01/22 04:51:49;;;;;;;8.50;3.40;;;;;;;0.44;95.15;101350.59;109572;1252;73158;-66
2023/01/22 04:54:37;;;;;;;8.70;3.90;;;;;;;0.40;95.06;101354.14;109595;1252;69154;-66
2023/01/22 04:57:25;;;;;;;7.70;3.50;;;;;;;0.37;95.30;101358.22;109570;1252;73881;-64
2023/01/22 05:00:14;;;;;;;8.10;2.90;;;;;;;0.36;95.40;101363.64;109589;1251;57369;-66
2023/01/22 05:03:03;;;;;;;9.20;4.20;;;;;;;0.35;95.59;101366.27;109560;1252;61381;-68
2023/01/22 05:05:51;;;;;;;9.40;4.00;;;;;;;0.35;95.57;101365.73;109457;1253;71584;-74
2023/01/22 05:08:39;;;;;;;8.40;3.50;;;;;;;0.35;95.52;101365.73;109448;1252;67907;-67
2023/01/22 05:11:29;;;;;;;7.10;3.30;;;;;;;0.36;95.74;101371.14;109549;1252;72539;-65
2023/01/22 05:14:22;;;;;;;8.70;3.60;;;;;;;0.36;95.63;101374.64;109570;1252;57346;-67
2023/01/22 05:17:10;;;;;;;8.20;3.50;;;;;;;0.32;95.48;101374.51;109486;1252;58740;-64
2023/01/22 05:19:59;;;;;;;8.50;4.00;;;;;;;0.32;95.85;101374.70;109572;1251;73592;-67
2023/01/22 05:22:47;;;;;;;8.40;3.90;;;;;;;0.32;95.54;101376.08;109571;1251;68775;-65
2023/01/22 05:25:37;;;;;;;7.90;3.60;;;;;;;0.33;95.83;101381.83;109510;1252;72434;-69
2023/01/22 05:28:25;;;;;;;9.70;4.10;;;;;;;0.33;95.70;101379.39;109511;1253;58938;-67
2023/01/22 05:31:27;;;;;;;8.00;3.50;;;;;;;0.34;95.51;101381.98;109562;1252;60074;-69
2023/01/22 05:34:21;;;;;;;8.00;3.20;;;;;;;0.33;95.28;101389.69;109559;1252;71660;-68
2023/01/22 05:37:09;;;;;;;9.20;3.40;;;;;;;0.32;95.28;101385.86;109318;1254;66897;-65
2023/01/22 05:39:57;;;;;;;8.70;3.40;;;;;;;0.31;95.52;101393.03;109305;1254;72803;-65
2023/01/22 05:42:45;;;;;;;10.10;4.10;;;;;;;0.32;95.50;101396.16;109188;1254;59967;-68
2023/01/22 05:45:34;;;;;;;7.90;3.60;;;;;;;0.34;95.43;101396.65;109355;1254;59246;-67
2023/01/22 05:48:42;;;;;;;9.00;4.10;;;;;;;0.36;95.35;101390.00;109296;1254;74221;-66
2023/01/22 05:51:33;;;;;;;8.80;3.90;;;;;;;0.37;95.53;101394.53;109324;1254;66544;-68
2023/01/22 05:54:21;;;;;;;8.50;3.50;;;;;;;0.37;95.45;101398.52;109311;1254;72448;-72
2023/01/22 05:57:10;;;;;;;9.30;4.10;;;;;;;0.37;95.27;101398.02;109309;1254;57548;-69
2023/01/22 05:59:58;;;;;;;7.80;3.50;;;;;;;0.38;95.49;101404.11;109314;1254;61429;-69
2023/01/22 06:02:47;;;;;;;8.60;3.20;;;;;;;0.39;95.67;101409.50;109373;1254;73293;-69
2023/01/22 06:05:35;;;;;;;9.00;3.60;;;;;;;0.40;95.40;101412.12;109286;1254;68078;-68
2023/01/22 06:08:26;;;;;;;8.90;3.90;;;;;;;0.40;95.57;101417.88;109320;1254;74310;-68
2023/01/22 06:11:16;;;;;;;10.70;4.00;;;;;;;0.39;95.59;101421.73;109217;1254;58463;-65
2023/01/22 06:14:05;;;;;;;10.80;4.40;;;;;;;0.39;95.52;101425.05;109249;1252;59215;-70
2023/01/22 06:16:53;;;;;;;10.10;4.40;;;;;;;0.40;95.42;101427.84;109466;1253;71885;-67
2023/01/22 06:19:55;;;;;;;8.90;3.90;;;;;;;0.40;95.48;101426.96;109533;1252;68076;-67
2023/01/22 06:22:43;;;;;;;9.40;4.30;;;;;;;0.38;95.40;101430.83;109512;1252;73418;-66
2023/01/22 06:25:31;;;;;;;9.70;4.40;;;;;;;0.38;95.47;101436.41;109494;1252;57608;-66
2023/01/22 06:28:30;;;;;;;11.30;4.60;;;;;;;0.39;95.20;101439.19;109459;1252;61060;-67
2023/01/22 06:31:18;;;;;;;10.40;4.80;;;;;;;0.42;95.70;101445.45;109360;1252;72994;-67
2023/01/22 06:34:08;;;;;;;8.60;3.90;;;;;;;0.46;95.43;101445.39;109465;1252;69014;-67
2023/01/22 06:36:56;;;;;;;8.70;4.20;;;;;;;0.47;95.30;101445.72;109420;1253;71620;-66
2023/01/22 06:39:45;;;;;;;9.20;3.60;;;;;;;0.45;95.37;101450.63;109462;1253;57385;-67
2023/01/22 06:42:41;;;;;;;9.40;4.40;;;;;;;0.42;95.34;101451.39;109517;1252;58065;-66
2023/01/22 06:45:29;;;;;;;9.90;5.00;;;;;;;0.41;95.50;101457.70;108813;1252;1003002;-70
2023/01/22 06:48:18;;;;;;;8.30;3.50;;;;;;;0.43;95.62;101463.77;109396;1253;68657;-66
2023/01/22 06:51:06;;;;;;;8.30;3.80;;;;;;;0.40;95.28;101467.30;109116;1256;72940;-67
2023/01/22 06:53:55;;;;;;;8.90;4.10;;;;;;;0.38;95.25;101469.94;109119;1256;59243;-68
2023/01/22 06:56:43;;;;;;;9.60;4.10;;;;;;;0.39;95.20;101471.85;109112;1256;59999;-71
2023/01/22 06:59:32;;;;;;;7.70;3.60;;;;;;;0.38;95.31;101476.40;109125;1256;71830;-70
2023/01/22 07:02:23;;;;;;;8.60;3.40;;;;;;;0.39;95.08;101479.88;109141;1256;66443;-68
2023/01/22 07:05:11;;;;;;;8.70;3.70;;;;;;;0.42;95.46;101483.69;109137;1256;72767;-72
2023/01/22 07:08:00;;;;;;;8.70;4.10;;;;;;;0.44;95.42;101485.40;109134;1256;58565;-72
2023/01/22 07:10:49;;;;;;;8.40;4.00;;;;;;;0.47;95.50;101483.44;109061;1256;61560;-70
2023/01/22 07:13:37;;;;;;;9.20;4.70;;;;;;;0.50;95.07;101486.72;108343;1256;1002477;-71
2023/01/22 07:16:25;;;;;;;9.20;4.50;;;;;;;0.54;95.24;101486.52;109066;1256;67610;-70
2023/01/22 07:19:13;;;;;;;8.90;3.80;;;;;;;0.54;94.48;101485.45;109081;1256;70462;-69
2023/01/22 07:22:01;;;;;;;8.80;4.00;;;;;;;0.53;94.64;101488.42;109148;1256;57362;-71
2023/01/22 07:24:49;;;;;;;8.70;4.40;;;;;;;0.55;94.80;101495.38;109166;1255;59248;-69
2023/01/22 07:27:37;;;;;;;9.10;4.40;;;;;;;0.55;94.41;101494.33;109248;1256;71949;-68
2023/01/22 07:30:25;;;;;;;16.40;6.00;;;;;;;0.51;93.79;101497.53;109595;1252;69022;-69
2023/01/22 07:33:15;;;;;;;12.00;5.10;;;;;;;0.50;93.93;101506.82;109526;1251;71135;-69
2023/01/22 07:36:03;;;;;;;11.90;5.40;;;;;;;0.50;94.05;101510.65;109547;1252;58498;-68
2023/01/22 07:38:52;;;;;;;8.60;3.50;;;;;;;0.51;93.97;101512.21;108874;1252;1002310;-68
2023/01/22 07:41:40;;;;;;;11.30;4.40;;;;;;;0.47;93.75;101515.57;109608;1251;73169;-69
2023/01/22 07:44:31;;;;;;;10.30;4.30;;;;;;;0.45;93.75;101521.90;109572;1252;67714;-70
2023/01/22 07:47:20;;;;;;;12.20;4.50;;;;;;;0.42;93.73;101522.80;109548;1252;72134;-68
2023/01/22 07:50:09;;;;;;;10.10;4.20;;;;;;;0.40;93.72;101526.84;109552;1252;58911;-70
2023/01/22 07:52:59;;;;;;;11.40;4.60;;;;;;;0.40;93.95;101530.67;109415;1254;61550;-66
2023/01/22 07:55:47;;;;;;;9.90;4.60;;;;;;;0.43;94.55;101532.04;109420;1254;73178;-71
2023/01/22 07:58:35;;;;;;;11.90;4.80;;;;;;;0.48;94.33;101538.80;109432;1254;68658;-70
2023/01/22 08:01:23;;;;;;;9.50;4.30;;;;;;;0.48;93.76;101546.98;109432;1254;71543;-70
2023/01/22 08:04:11;;;;;;;14.00;5.60;;;;;;;0.48;93.72;101549.44;109343;1254;57962;-68
2023/01/22 08:07:00;;;;;;;13.50;5.30;;;;;;;0.48;94.00;101551.19;109223;1254;60061;-72
2023/01/22 08:09:49;;;;;;;13.90;6.10;;;;;;;0.46;94.03;101552.80;109137;1254;73171;-73
2023/01/22 08:12:40;;;;;;;11.90;4.90;;;;;;;0.44;94.34;101555.27;109310;1254;68641;-73
2023/01/22 08:15:28;;;;;;;12.50;5.70;;;;;;;0.45;94.69;101561.35;109267;1254;71465;-72
2023/01/22 08:18:16;;;;;;;14.00;5.80;;;;;;;0.47;94.99;101564.83;109297;1255;57616;-71
2023/01/22 08:21:06;;;;;;;11.90;5.30;;;;;;;0.49;95.02;101562.89;109201;1254;60404;-72
2023/01/22 08:23:54;;;;;;;10.60;4.80;;;;;;;0.48;94.87;101565.84;109190;1254;72794;-71
2023/01/22 08:26:44;;;;;;;8.00;3.70;;;;;;;0.48;95.03;101569.88;109336;1254;67590;-71
2023/01/22 08:29:32;;;;;;;9.00;3.90;;;;;;;0.46;95.07;101564.49;109317;1254;73912;-74
2023/01/22 08:32:20;;;;;;;9.60;4.20;;;;;;;0.42;95.01;101564.88;109337;1254;57273;-74
2023/01/22 08:35:09;;;;;;;9.20;4.30;;;;;;;0.42;95.20;101565.23;109153;1254;60918;-73
2023/01/22 08:38:00;;;;;;;10.00;4.80;;;;;;;0.40;95.25;101563.70;108568;1254;1014072;-72
2023/01/22 08:40:52;;;;;;;10.80;4.60;;;;;;;0.40;95.16;101569.80;109359;1254;67634;-74
2023/01/22 08:43:43;;;;;;;11.70;4.90;;;;;;;0.41;95.28;101565.77;109343;1254;71482;-72
2023/01/22 08:46:31;;;;;;;9.30;4.30;;;;;;;0.42;94.84;101569.62;109449;1254;57407;-72
2023/01/22 08:49:22;;;;;;;9.60;4.40;;;;;;;0.42;95.12;101569.25;108993;1258;60094;-68
2023/01/22 08:52:10;;;;;;;10.80;4.80;;;;;;;0.42;94.87;101571.00;109086;1256;71775;-76
2023/01/22 08:54:58;;;;;;;10.30;4.30;;;;;;;0.44;94.90;101571.69;109168;1256;66717;-72
2023/01/22 08:57:54;;;;;;;7.20;3.20;;;;;;;0.47;94.62;101581.23;109158;1256;71469;-74
2023/01/22 09:00:45;;;;;;;8.80;4.10;;;;;;;0.47;94.46;101581.95;109059;1256;57523;-71
2023/01/22 09:03:34;;;;;;;9.80;4.50;;;;;;;0.49;94.56;101582.27;109152;1256;60276;-70
2023/01/22 09:06:23;;;;;;;10.40;4.60;;;;;;;0.53;94.55;101583.11;109139;1256;72986;-69
2023/01/22 09:09:11;;;;;;;12.60;5.70;;;;;;;0.53;94.19;101579.42;109162;1256;67809;-71
2023/01/22 09:11:59;;;;;;;14.40;6.40;;;;;;;0.54;94.06;101584.14;109089;1256;72459;-69
2023/01/22 09:14:47;;;;;;;13.40;5.50;;;;;;;0.55;94.23;101587.79;109050;1256;57821;-71
2023/01/22 09:17:35;;;;;;;12.60;5.70;;;;;;;0.56;94.28;101590.41;109106;1256;61514;-72
2023/01/22 09:20:23;;;;;;;11.50;5.40;;;;;;;0.59;94.28;101594.39;108655;1252;1002162;-70
2023/01/22 09:23:12;;;;;;;12.00;5.10;;;;;;;0.60;94.01;101589.48;109610;1253;68362;-71
2023/01/22 09:26:02;;;;;;;12.20;5.70;;;;;;;0.56;93.63;101589.17;109561;1251;72885;-71
2023/01/22 09:28:50;;;;;;;11.80;5.70;;;;;;;0.51;93.39;101592.73;109653;1251;58552;-71
2023/01/22 09:31:38;;;;;;;11.10;5.30;;;;;;;0.44;93.65;101596.11;109620;1251;59004;-76
2023/01/22 09:34:27;;;;;;;9.70;4.70;;;;;;;0.39;93.56;101593.75;109592;1251;73470;-70
2023/01/22 09:37:15;;;;;;;10.30;4.20;;;;;;;0.38;93.73;101594.09;109612;1251;66663;-68
2023/01/22 09:40:04;;;;;;;10.40;3.90;;;;;;;0.37;93.42;101593.77;109555;1251;71190;-76
2023/01/22 09:43:16;;;;;;;10.70;4.40;;;;;;;0.35;93.13;101593.60;109592;1251;57371;-72
2023/01/22 09:46:15;;;;;;;10.80;3.90;;;;;;;0.31;93.03;101595.40;109581;1254;60451;-70
2023/01/22 09:49:17;;;;;;;10.00;4.30;;;;;;;0.28;93.18;101595.59;109572;1251;72857;-67
2023/01/22 09:52:05;;;;;;;8.30;3.70;;;;;;;0.29;93.42;101598.73;109533;1251;68049;-70
2023/01/22 09:54:53;;;;;;;7.90;3.40;;;;;;;0.30;93.24;101601.17;109366;1251;72908;-72
2023/01/22 09:57:45;;;;;;;9.50;3.80;;;;;;;0.31;93.18;101604.98;109578;1251;58835;-69
2023/01/22 10:00:49;;;;;;;9.20;4.20;;;;;;;0.32;93.31;101606.21;109564;1251;58720;-70
2023/01/22 10:03:45;;;;;;;8.80;3.90;;;;;;;0.33;93.14;101606.89;109195;1256;73740;-72
2023/01/22 10:06:33;;;;;;;9.10;4.00;;;;;;;0.39;93.72;101608.05;109175;1256;68098;-74
2023/01/22 10:09:22;;;;;;;9.00;3.80;;;;;;;0.41;93.64;101608.20;107724;1256;1002809;-71
2023/01/22 10:12:12;;;;;;;10.40;4.20;;;;;;;0.39;93.43;101610.48;109229;1256;59882;-67
2023/01/22 10:15:00;;;;;;;10.00;4.30;;;;;;;0.40;93.49;101611.02;108363;1256;1002231;-69
2023/01/22 10:17:49;;;;;;;10.80;4.40;;;;;;;0.39;93.18;101611.02;109237;1256;71614;-68
2023/01/22 10:20:39;;;;;;;11.10;3.60;;;;;;;0.39;93.41;101609.11;109197;1255;68683;-67
2023/01/22 10:23:32;;;;;;;9.90;4.50;;;;;;;0.44;94.05;101606.77;109120;1255;72605;-68
2023/01/22 10:26:37;;;;;;;11.10;4.00;;;;;;;0.47;93.42;101611.80;108994;1256;57354;-70
2023/01/22 10:29:35;;;;;;;10.30;4.30;;;;;;;0.49;93.06;101615.80;109165;1255;59550;-72
2023/01/22 10:32:28;;;;;;;12.50;4.40;;;;;;;0.47;93.09;101614.23;109255;1255;72201;-74
2023/01/22 10:35:19;;;;;;;10.50;4.70;;;;;;;0.47;93.23;101611.63;108699;1251;1002970;-73
2023/01/22 10:38:29;;;;;;;12.10;4.90;;;;;;;0.42;93.08;101609.08;109578;1251;73910;-71
2023/01/22 10:41:20;;;;;;;13.00;5.10;;;;;;;0.43;93.09;101612.55;109475;1251;58540;-71
2023/01/22 10:44:20;;;;;;;10.20;4.80;;;;;;;0.46;93.29;101612.86;109660;1251;58283;-72
2023/01/22 10:47:19;;;;;;;11.80;5.20;;;;;;;0.49;93.02;101617.73;109557;1251;73157;-73
2023/01/22 10:50:15;;;;;;;11.30;5.30;;;;;;;0.47;92.71;101616.33;109600;1251;67979;-68
2023/01/22 10:53:14;;;;;;;9.40;4.00;;;;;;;0.46;92.79;101614.09;109219;1254;72747;-71
2023/01/22 10:56:06;;;;;;;11.20;4.90;;;;;;;0.46;93.24;101619.16;109349;1254;58874;-73
2023/01/22 10:58:57;;;;;;;9.40;4.40;;;;;;;0.44;93.16;101617.95;109275;1254;60078;-72
2023/01/22 11:01:47;;;;;;;11.90;5.70;;;;;;;0.45;93.36;101620.21;109260;1256;72758;-74
2023/01/22 11:04:35;;;;;;;12.50;5.30;;;;;;;0.48;93.56;101619.30;109300;1255;67539;-72
2023/01/22 11:07:30;;;;;;;11.50;4.90;;;;;;;0.51;93.66;101619.80;109254;1254;72404;-71
2023/01/22 11:10:53;;;;;;;11.70;5.80;;;;;;;0.54;93.48;101619.77;109481;1253;58488;-74
2023/01/22 11:13:56;;;;;;;12.20;5.40;;;;;;;0.58;93.33;101621.65;109347;1253;60306;-68
2023/01/22 11:16:48;;;;;;;11.70;6.00;;;;;;;0.61;93.35;101618.46;109240;1254;73269;-70
2023/01/22 11:19:50;;;;;;;10.80;4.80;;;;;;;0.66;93.33;101616.83;109271;1254;69150;-72
2023/01/22 11:22:44;;;;;;;11.00;4.90;;;;;;;0.66;92.83;101614.38;108426;1254;1002249;-70
2023/01/22 11:26:02;;;;;;;10.70;5.00;;;;;;;0.68;92.70;101619.43;109218;1253;57532;-70
2023/01/22 11:29:32;;;;;;;14.70;6.00;;;;;;;0.71;92.95;101617.83;109293;1254;60305;-71
2023/01/22 11:32:54;;;;;;;13.70;6.20;;;;;;;0.77;93.09;101618.45;109243;1254;73069;-67
2023/01/22 11:36:00;;;;;;;10.80;5.30;;;;;;;0.79;92.87;101616.31;108796;1261;67878;-65
2023/01/22 11:39:07;;;;;;;11.00;4.80;;;;;;;0.84;92.34;101618.88;108787;1261;72380;-69
2023/01/22 11:42:08;;;;;;;11.80;5.90;;;;;;;0.89;92.77;101615.15;108779;1261;57396;-69
2023/01/22 11:45:56;;;;;;;13.60;5.90;;;;;;;0.92;92.49;101618.10;108836;1261;60665;-74
2023/01/22 11:49:23;;;;;;;12.00;5.30;;;;;;;0.92;92.60;101620.54;108499;1266;72762;-71
2023/01/22 11:52:32;;;;;;;11.10;4.80;;;;;;;0.87;92.22;101614.66;108513;1267;68770;-73
2023/01/22 11:56:11;;;;;;;10.10;4.80;;;;;;;0.91;92.24;101622.83;108498;1266;71111;-77
2023/01/22 11:59:26;;;;;;;11.40;5.00;;;;;;;0.90;92.12;101617.41;108441;1267;59945;-71
2023/01/22 12:03:03;;;;;;;10.50;4.60;;;;;;;0.85;91.95;101614.51;107743;1267;1002243;-77
2023/01/22 12:06:42;;;;;;;11.90;4.80;;;;;;;0.82;92.09;101616.98;108498;1266;73089;-75
2023/01/22 12:09:34;;;;;;;8.80;3.80;;;;;;;0.80;92.11;101612.30;107984;1273;66992;-74
2023/01/22 12:12:40;;;;;;;10.10;4.60;;;;;;;0.80;92.45;101608.80;108264;1267;72791;-73
2023/01/22 12:15:55;;;;;;;10.50;4.30;;;;;;;0.83;92.45;101605.10;108495;1267;57310;-73
2023/01/22 12:19:31;;;;;;;12.30;5.10;;;;;;;0.89;92.52;101607.98;108491;1267;60503;-75
2023/01/22 12:22:37;;;;;;;10.20;4.60;;;;;;;0.95;92.27;101612.45;108563;1262;70719;-77
2023/01/22 12:25:56;;;;;;;10.50;4.80;;;;;;;0.98;91.46;101610.49;108880;1262;68218;-74
2023/01/22 12:29:13;;;;;;;12.60;4.50;;;;;;;0.95;91.53;101609.30;108867;1261;72419;-74
2023/01/22 12:32:24;;;;;;;;;;;;;;;;;;;;;
2023/01/22 12:35:20;;;;;;;9.80;4.30;;;;;;;0.96;91.82;101606.50;108804;1262;61117;-74
2023/01/22 12:38:16;;;;;;;10.30;5.10;;;;;;;0.93;91.64;101607.42;108804;1262;72796;-77
2023/01/22 12:41:37;;;;;;;11.50;4.60;;;;;;;0.91;92.10;101610.58;108799;1262;65994;-77
2023/01/22 12:44:46;;;;;;;11.00;4.80;;;;;;;0.88;92.05;101609.92;109473;1253;70505;-73
2023/01/22 12:47:57;;;;;;;11.80;4.60;;;;;;;0.88;92.13;101608.17;109567;1253;58666;-77
2023/01/22 12:50:56;;;;;;;11.30;5.10;;;;;;;0.88;92.23;101607.47;108768;1253;1002288;-74
2023/01/22 12:53:54;;;;;;;12.70;5.40;;;;;;;0.90;92.46;101604.30;109506;1253;73231;-79
2023/01/22 12:56:44;;;;;;;12.50;5.30;;;;;;;0.96;92.80;101607.02;109570;1252;66392;-76
2023/01/22 12:59:34;;;;;;;11.30;4.60;;;;;;;0.96;92.57;101607.90;108788;1253;1002445;-76
2023/01/22 13:02:26;;;;;;;11.50;4.50;;;;;;;0.96;92.17;101609.13;109463;1253;57671;-73
2023/01/22 13:05:35;;;;;;;11.30;4.80;;;;;;;0.95;92.60;101606.17;109527;1253;60690;-75
2023/01/22 13:08:40;;;;;;;11.30;4.80;;;;;;;1.01;92.43;101612.55;109426;1253;72519;-77
2023/01/22 13:11:38;;;;;;;17.00;7.30;;;;;;;1.04;92.68;101616.37;109478;1253;66449;-78
2023/01/22 13:14:30;;;;;;;13.30;6.00;;;;;;;1.03;92.68;101611.48;109475;1252;72605;-77
2023/01/22 13:17:29;;;;;;;22.60;8.70;;;;;;;1.08;92.52;101621.55;109329;1253;58797;-75
2023/01/22 13:20:18;;;;;;;18.10;7.40;;;;;;;1.09;92.53;101622.42;109527;1252;60308;-76
2023/01/22 13:23:15;;;;;;;17.30;7.20;;;;;;;1.12;92.70;101624.28;109276;1256;71484;-76
2023/01/22 13:26:25;;;;;;;14.10;6.30;;;;;;;1.13;92.27;101628.46;109565;1253;66537;-77
2023/01/22 13:29:35;;;;;;;13.10;5.80;;;;;;;1.14;92.14;101629.67;109287;1253;71566;-75
2023/01/22 13:32:28;;;;;;;13.90;5.00;;;;;;;1.14;92.03;101635.98;109541;1253;57261;-75
2023/01/22 13:35:16;;;;;;;11.50;4.60;;;;;;;1.13;92.06;101639.31;109312;1253;60029;-72